createdAt,value
2018-04-18T00:01:34.040Z,25.57
2018-04-18T00:04:02.326Z,24.83
2018-04-18T00:06:30.635Z,34.47
2018-04-18T00:08:59.005Z,27.73
2018-04-18T00:11:27.526Z,25.80
2018-04-18T00:13:55.819Z,25.20
2018-04-18T00:16:24.147Z,20.03
2018-04-18T00:18:52.394Z,28.83
2018-04-18T00:21:20.688Z,22.67
2018-04-18T00:23:48.930Z,21.57
2018-04-18T00:26:23.777Z,32.70
2018-04-18T00:28:52.189Z,27.07
2018-04-18T00:31:20.691Z,21.87
2018-04-18T00:33:49.126Z,33.23
2018-04-18T00:36:17.405Z,23.63
2018-04-18T00:38:45.694Z,23.70
2018-04-18T00:41:13.964Z,25.10
2018-04-18T00:43:42.218Z,28.10
2018-04-18T00:46:10.758Z,27.27
2018-04-18T00:48:39.035Z,23.10
2018-04-18T00:51:07.536Z,25.53
2018-04-18T00:53:35.799Z,23.30
2018-04-18T00:56:04.088Z,23.00
2018-04-18T00:58:32.418Z,18.97
2018-04-18T01:01:00.770Z,26.23
2018-04-18T01:03:29.027Z,27.83
2018-04-18T01:05:57.770Z,24.70
2018-04-18T01:08:26.036Z,26.43
2018-04-18T01:10:54.330Z,22.73
2018-04-18T01:13:22.626Z,26.47
2018-04-18T01:15:51.118Z,25.63
2018-04-18T01:18:19.467Z,28.57
2018-04-18T01:20:47.850Z,28.27
2018-04-18T01:23:16.107Z,18.13
2018-04-18T01:25:44.390Z,21.10
2018-04-18T01:28:12.656Z,22.93
2018-04-18T01:30:40.947Z,28.80
2018-04-18T01:33:09.393Z,26.70
2018-04-18T01:35:37.710Z,19.70
2018-04-18T01:38:06.153Z,23.87
2018-04-18T01:40:34.456Z,24.53
2018-04-18T01:43:02.710Z,26.43
2018-04-18T01:45:31.030Z,25.90
2018-04-18T01:47:59.447Z,29.60
2018-04-18T01:50:27.770Z,28.30
2018-04-18T01:52:56.055Z,18.10
2018-04-18T01:55:24.337Z,21.83
2018-04-18T01:57:52.603Z,24.33
2018-04-18T02:00:21.099Z,30.37
2018-04-18T02:02:49.386Z,26.83
2018-04-18T02:05:17.670Z,19.67
2018-04-18T02:07:46.097Z,20.03
2018-04-18T02:10:14.418Z,24.67
2018-04-18T02:12:42.913Z,22.17
2018-04-18T02:15:11.166Z,26.10
2018-04-18T02:17:39.436Z,30.33
2018-04-18T02:20:07.736Z,21.13
2018-04-18T02:22:36.832Z,23.47
2018-04-18T02:25:05.346Z,23.70
2018-04-18T02:27:33.670Z,22.60
2018-04-18T02:30:02.086Z,22.10
2018-04-18T02:32:30.395Z,24.93
2018-04-18T02:34:58.651Z,25.10
2018-04-18T02:37:26.989Z,33.40
2018-04-18T02:39:55.419Z,27.50
2018-04-18T02:42:26.714Z,25.00
2018-04-18T02:44:54.949Z,23.43
2018-04-18T02:47:23.233Z,32.60
2018-04-18T02:49:51.498Z,21.80
2018-04-18T02:52:20.016Z,25.40
2018-04-18T02:54:48.310Z,19.27
2018-04-18T02:57:16.599Z,19.73
2018-04-18T02:59:44.871Z,26.20
2018-04-18T03:02:13.158Z,19.87
2018-04-18T03:04:41.418Z,23.13
2018-04-18T03:07:09.711Z,28.43
2018-04-18T03:09:38.129Z,28.43
2018-04-18T03:12:06.454Z,19.67
2018-04-18T03:14:35.086Z,22.47
2018-04-18T03:17:03.386Z,27.67
2018-04-18T03:19:31.645Z,23.70
2018-04-18T03:22:00.083Z,23.43
2018-04-18T03:24:28.394Z,26.10
2018-04-18T03:26:56.689Z,24.70
2018-04-18T03:29:24.970Z,23.80
2018-04-18T03:31:53.262Z,18.00
2018-04-18T03:34:21.503Z,22.73
2018-04-18T03:36:49.795Z,26.50
2018-04-18T03:39:18.071Z,27.20
2018-04-18T03:41:46.347Z,19.13
2018-04-18T03:44:14.787Z,19.10
2018-04-18T03:46:43.100Z,23.60
2018-04-18T03:49:11.359Z,25.73
2018-04-18T03:51:39.650Z,23.10
2018-04-18T03:54:08.110Z,21.57
2018-04-18T03:56:36.650Z,20.33
2018-04-18T03:59:05.302Z,23.87
2018-04-18T04:04:29.126Z,19.67
2018-04-18T04:06:57.562Z,26.70
2018-04-18T04:09:25.819Z,21.30
2018-04-18T04:11:54.433Z,18.93
2018-04-18T04:14:22.683Z,22.47
2018-04-18T04:17:02.275Z,24.90
2018-04-18T04:22:45.718Z,24.73
2018-04-18T04:25:14.182Z,25.50
2018-04-18T04:27:42.450Z,24.00
2018-04-18T04:30:10.862Z,23.87
2018-04-18T04:32:39.106Z,25.23
2018-04-18T04:35:07.419Z,20.40
2018-04-18T04:37:35.672Z,27.27
2018-04-18T04:40:04.011Z,29.93
2018-04-18T04:42:32.313Z,36.43
2018-04-18T04:45:00.582Z,36.03
2018-04-18T04:47:28.862Z,30.90
2018-04-18T04:49:57.108Z,27.20
2018-04-18T04:52:25.415Z,34.10
2018-04-18T04:54:53.991Z,27.40
2018-04-18T04:57:22.323Z,27.10
2018-04-18T04:59:50.654Z,21.80
2018-04-18T05:02:18.931Z,26.00
2018-04-18T05:04:47.185Z,25.83
2018-04-18T05:07:15.488Z,34.10
2018-04-18T05:09:43.843Z,28.30
2018-04-18T05:12:12.203Z,22.43
2018-04-18T05:14:40.509Z,25.90
2018-04-18T05:17:08.800Z,28.63
2018-04-18T05:19:37.269Z,20.80
2018-04-18T05:22:05.559Z,37.40
2018-04-18T05:24:33.887Z,25.67
2018-04-18T05:27:02.187Z,29.30
2018-04-18T05:29:30.681Z,27.87
2018-04-18T05:31:58.971Z,34.03
2018-04-18T05:34:27.265Z,28.70
2018-04-18T05:36:55.568Z,35.53
2018-04-18T05:39:23.853Z,48.97
2018-04-18T05:41:52.167Z,45.30
2018-04-18T05:44:20.554Z,39.83
2018-04-18T05:46:48.871Z,35.53
2018-04-18T05:49:17.214Z,39.63
2018-04-18T05:51:45.695Z,53.03
2018-04-18T05:54:13.991Z,44.30
2018-04-18T05:56:42.290Z,65.17
2018-04-18T05:59:10.668Z,58.17
2018-04-18T06:01:39.181Z,58.43
2018-04-18T06:04:07.479Z,54.33
2018-04-18T06:06:35.770Z,59.20
2018-04-18T06:09:04.127Z,62.17
2018-04-18T06:11:32.551Z,58.23
2018-04-18T06:14:00.913Z,56.00
2018-04-18T06:16:29.219Z,56.97
2018-04-18T06:18:57.598Z,55.73
2018-04-18T06:21:25.979Z,54.50
2018-04-18T06:23:54.254Z,57.50
2018-04-18T06:26:22.766Z,59.03
2018-04-18T06:28:51.151Z,57.60
2018-04-18T06:31:19.559Z,54.67
2018-04-18T06:33:47.850Z,56.00
2018-04-18T06:36:16.154Z,70.43
2018-04-18T06:38:44.406Z,55.63
2018-04-18T06:41:12.694Z,42.57
2018-04-18T06:43:41.139Z,57.73
2018-04-18T06:46:09.615Z,51.47
2018-04-18T06:48:37.900Z,56.07
2018-04-18T06:51:06.321Z,51.87
2018-04-18T06:53:34.618Z,56.67
2018-04-18T06:56:02.915Z,58.63
2018-04-18T06:58:31.198Z,47.20
2018-04-18T07:00:59.495Z,42.97
2018-04-18T07:03:27.986Z,51.00
2018-04-18T07:05:56.451Z,48.60
2018-04-18T07:08:24.732Z,54.60
2018-04-18T07:10:53.030Z,58.37
2018-04-18T07:13:23.861Z,53.00
2018-04-18T07:15:55.198Z,42.60
2018-04-18T07:18:23.723Z,45.80
2018-04-18T07:20:52.675Z,38.70
2018-04-18T07:23:21.134Z,49.67
2018-04-18T07:25:50.074Z,41.80
2018-04-18T07:28:18.651Z,37.07
2018-04-18T07:30:47.300Z,35.00
2018-04-18T07:33:16.831Z,38.40
2018-04-18T07:35:45.174Z,38.27
2018-04-18T07:38:13.456Z,39.30
2018-04-18T07:40:41.742Z,33.37
2018-04-18T07:43:10.156Z,29.53
2018-04-18T07:45:38.495Z,34.70
2018-04-18T07:48:06.855Z,34.27
2018-04-18T07:50:35.161Z,30.37
2018-04-18T07:53:03.444Z,48.23
2018-04-18T07:56:30.901Z,28.47
2018-04-18T07:58:59.241Z,31.17
2018-04-18T08:01:27.566Z,31.20
2018-04-18T08:03:55.824Z,23.40
2018-04-18T08:06:24.099Z,30.63
2018-04-18T08:08:52.474Z,34.33
2018-04-18T08:11:20.805Z,27.03
2018-04-18T08:13:49.102Z,33.37
2018-04-18T08:16:17.382Z,28.37
2018-04-18T08:18:45.662Z,29.73
2018-04-18T08:21:14.153Z,24.27
2018-04-18T08:23:42.456Z,23.77
2018-04-18T08:26:10.973Z,28.93
2018-04-18T08:28:39.272Z,45.43
2018-04-18T08:31:07.713Z,32.90
2018-04-18T08:33:35.978Z,24.30
2018-04-18T08:36:04.549Z,27.90
2018-04-18T08:38:32.902Z,25.00
2018-04-18T08:41:01.227Z,21.53
2018-04-18T08:43:29.605Z,31.93
2018-04-18T08:45:57.894Z,32.03
2018-04-18T08:48:26.180Z,23.10
2018-04-18T08:50:54.478Z,24.27
2018-04-18T08:53:22.750Z,25.30
2018-04-18T08:55:51.046Z,30.80
2018-04-18T08:58:19.316Z,26.73
2018-04-18T09:00:47.744Z,23.63
2018-04-18T09:03:16.102Z,26.17
2018-04-18T09:05:44.604Z,22.47
2018-04-18T09:08:12.859Z,25.40
2018-04-18T09:10:41.307Z,27.60
2018-04-18T09:13:10.043Z,25.27
2018-04-18T09:15:38.623Z,24.07
2018-04-18T09:18:06.903Z,26.00
2018-04-18T09:20:35.232Z,20.77
2018-04-18T09:23:03.703Z,22.67
2018-04-18T09:25:32.012Z,32.93
2018-04-18T09:28:00.279Z,23.07
2018-04-18T09:30:28.772Z,21.97
2018-04-18T09:32:57.084Z,20.37
2018-04-18T09:35:25.374Z,20.90
2018-04-18T09:37:53.660Z,23.23
2018-04-18T09:40:22.066Z,24.70
2018-04-18T09:42:50.426Z,26.90
2018-04-18T09:45:18.716Z,24.60
2018-04-18T09:47:47.012Z,20.83
2018-04-18T09:50:15.338Z,23.93
2018-04-18T09:52:43.808Z,21.03
2018-04-18T09:55:12.238Z,27.13
2018-04-18T09:57:40.509Z,29.53
2018-04-18T10:00:08.898Z,23.47
2018-04-18T10:02:37.811Z,23.03
2018-04-18T10:05:07.870Z,20.20
2018-04-18T10:07:36.123Z,21.23
2018-04-18T10:10:04.479Z,23.07
2018-04-18T10:12:33.248Z,19.73
2018-04-18T10:15:01.531Z,19.13
2018-04-18T10:17:30.103Z,18.90
2018-04-18T10:19:58.431Z,24.57
2018-04-18T10:22:27.784Z,20.20
2018-04-18T10:24:56.202Z,20.60
2018-04-18T10:27:25.125Z,18.13
2018-04-18T10:29:54.917Z,24.40
2018-04-18T10:32:23.220Z,23.87
2018-04-18T10:34:51.523Z,21.73
2018-04-18T10:37:19.819Z,22.30
2018-04-18T10:39:48.125Z,20.77
2018-04-18T10:42:16.472Z,19.70
2018-04-18T10:44:44.762Z,18.30
2018-04-18T10:47:13.107Z,19.73
2018-04-18T10:49:41.407Z,21.30
2018-04-18T10:52:10.050Z,15.97
2018-04-18T10:54:38.727Z,19.23
2018-04-18T10:57:07.105Z,23.47
2018-04-18T10:59:35.453Z,16.80
2018-04-18T11:02:03.911Z,21.90
2018-04-18T11:04:32.315Z,17.00
2018-04-18T11:07:00.619Z,15.90
2018-04-18T11:09:28.900Z,17.43
2018-04-18T11:11:57.229Z,19.50
2018-04-18T11:14:25.718Z,22.00
2018-04-18T11:16:54.259Z,12.33
2018-04-18T11:19:22.551Z,19.10
2018-04-18T11:21:51.102Z,14.57
2018-04-18T11:24:19.407Z,13.77
2018-04-18T11:26:47.774Z,12.20
2018-04-18T11:29:16.088Z,11.93
2018-04-18T11:31:44.402Z,13.53
2018-04-18T11:34:12.917Z,12.10
2018-04-18T11:36:41.383Z,8.93
2018-04-18T11:39:09.648Z,9.30
2018-04-18T11:41:38.568Z,10.63
2018-04-18T11:44:08.263Z,10.10
2018-04-18T11:46:36.836Z,8.00
2018-04-18T11:49:05.206Z,12.63
2018-04-18T11:51:33.494Z,10.90
2018-04-18T11:54:01.872Z,9.67
2018-04-18T11:56:30.162Z,9.40
2018-04-18T11:58:58.607Z,8.67
2018-04-18T12:01:26.925Z,9.00
2018-04-18T12:03:55.282Z,11.90
2018-04-18T12:06:23.720Z,10.27
2018-04-18T12:08:51.995Z,9.67
2018-04-18T12:11:20.310Z,9.53
2018-04-18T12:13:48.678Z,9.17
2018-04-18T12:16:16.989Z,9.00
2018-04-18T12:18:45.257Z,7.20
2018-04-18T12:21:13.617Z,7.97
2018-04-18T12:23:42.101Z,8.87
2018-04-18T12:26:10.428Z,10.53
2018-04-18T12:28:38.848Z,8.97
2018-04-18T12:31:07.130Z,7.93
2018-04-18T12:33:35.433Z,9.77
2018-04-18T12:36:03.771Z,8.37
2018-04-18T12:38:32.225Z,9.17
2018-04-18T12:41:00.526Z,8.70
2018-04-18T12:43:28.878Z,8.70
2018-04-18T12:45:57.270Z,9.10
2018-04-18T12:48:25.587Z,14.80
2018-04-18T12:50:54.000Z,12.30
2018-04-18T12:53:22.371Z,9.20
2018-04-18T12:55:50.707Z,14.00
2018-04-18T12:58:19.001Z,7.10
2018-04-18T13:00:47.301Z,7.60
2018-04-18T13:03:15.657Z,9.37
2018-04-18T13:05:44.046Z,7.43
2018-04-18T13:08:12.343Z,5.77
2018-04-18T13:10:40.798Z,11.33
2018-04-18T13:13:09.088Z,7.73
2018-04-18T13:15:37.466Z,8.00
2018-04-18T13:18:06.113Z,5.80
2018-04-18T13:20:34.513Z,6.20
2018-04-18T13:23:02.785Z,8.63
2018-04-18T13:25:31.132Z,7.37
2018-04-18T13:27:59.507Z,6.30
2018-04-18T13:30:27.856Z,13.40
2018-04-18T13:32:56.130Z,7.37
2018-04-18T13:35:24.491Z,7.00
2018-04-18T13:37:52.842Z,5.40
2018-04-18T13:40:21.474Z,7.57
2018-04-18T13:42:49.991Z,6.73
2018-04-18T13:45:18.319Z,9.10
2018-04-18T13:47:46.599Z,5.20
2018-04-18T13:50:15.339Z,8.93
2018-04-18T13:52:44.610Z,7.80
2018-04-18T13:55:12.907Z,5.13
2018-04-18T13:57:41.179Z,6.50
2018-04-18T14:00:09.730Z,5.40
2018-04-18T14:02:38.016Z,6.60
2018-04-18T14:05:06.377Z,9.60
2018-04-18T14:07:34.669Z,8.03
2018-04-18T14:10:02.977Z,7.77
2018-04-18T14:12:31.295Z,6.40
2018-04-18T14:14:59.535Z,8.87
2018-04-18T14:17:27.858Z,6.77
2018-04-18T14:19:57.582Z,6.23
2018-04-18T14:22:26.276Z,14.77
2018-04-18T14:24:54.511Z,9.10
2018-04-18T14:27:23.066Z,9.60
2018-04-18T14:29:51.392Z,6.07
2018-04-18T14:32:19.698Z,7.33
2018-04-18T14:34:47.951Z,12.00
2018-04-18T14:37:16.263Z,12.17
2018-04-18T14:39:44.590Z,13.17
2018-04-18T14:42:13.072Z,9.67
2018-04-18T14:44:41.817Z,7.97
2018-04-18T14:47:10.313Z,11.77
2018-04-18T14:49:38.574Z,14.63
2018-04-18T14:52:07.409Z,12.43
2018-04-18T14:54:35.931Z,11.00
2018-04-18T14:57:04.289Z,13.20
2018-04-18T14:59:32.531Z,11.20
2018-04-18T15:02:00.844Z,11.90
2018-04-18T15:04:29.123Z,12.70
2018-04-18T15:06:57.599Z,15.13
2018-04-18T15:09:25.862Z,11.13
2018-04-18T15:11:54.202Z,17.43
2018-04-18T15:14:22.539Z,11.10
2018-04-18T15:16:51.044Z,15.40
2018-04-18T15:19:19.364Z,16.43
2018-04-18T15:21:47.688Z,12.50
2018-04-18T15:24:16.295Z,11.27
2018-04-18T15:26:44.995Z,10.27
2018-04-18T15:29:13.396Z,9.97
2018-04-18T15:31:41.851Z,12.27
2018-04-18T15:34:10.120Z,12.10
2018-04-18T15:36:38.632Z,10.13
2018-04-18T15:39:07.273Z,13.97
2018-04-18T15:41:35.562Z,16.40
2018-04-18T15:44:03.968Z,13.67
2018-04-18T15:46:32.330Z,11.30
2018-04-18T15:49:00.702Z,8.47
2018-04-18T15:51:29.090Z,10.10
2018-04-18T15:53:57.410Z,21.97
2018-04-18T15:56:26.050Z,8.10
2018-04-18T15:58:54.838Z,14.70
2018-04-18T16:01:23.258Z,13.60
2018-04-18T16:03:51.548Z,15.07
2018-04-18T16:06:20.370Z,18.03
2018-04-18T16:08:48.610Z,13.13
2018-04-18T16:11:16.902Z,10.90
2018-04-18T16:13:45.334Z,12.57
2018-04-18T16:16:13.682Z,9.90
2018-04-18T16:18:41.967Z,8.43
2018-04-18T16:21:10.435Z,10.50
2018-04-18T16:23:38.873Z,11.10
2018-04-18T16:26:07.180Z,13.23
2018-04-18T16:28:35.497Z,14.67
2018-04-18T16:31:03.981Z,13.90
2018-04-18T16:33:32.294Z,13.73
2018-04-18T16:36:00.715Z,19.80
2018-04-18T16:38:29.189Z,11.47
2018-04-18T16:40:57.522Z,17.33
2018-04-18T16:43:25.773Z,9.10
2018-04-18T16:46:00.906Z,13.97
2018-04-18T16:48:29.367Z,8.77
2018-04-18T16:50:58.374Z,15.80
2018-04-18T16:53:27.210Z,15.43
2018-04-18T16:55:55.634Z,12.33
2018-04-18T16:58:23.911Z,17.60
2018-04-18T17:00:52.208Z,15.90
2018-04-18T17:03:20.461Z,12.13
2018-04-18T17:05:48.766Z,16.20
2018-04-18T17:08:17.203Z,13.83
2018-04-18T17:10:45.541Z,9.47
2018-04-18T17:13:13.891Z,13.67
2018-04-18T17:15:42.379Z,14.27
2018-04-18T17:18:10.806Z,9.83
2018-04-18T17:20:39.250Z,10.70
2018-04-18T17:23:07.629Z,10.83
2018-04-18T17:25:35.926Z,13.50
2018-04-18T17:28:04.204Z,11.23
2018-04-18T17:30:32.533Z,13.33
2018-04-18T17:33:00.830Z,10.00
2018-04-18T17:35:29.179Z,9.43
2018-04-18T17:37:57.562Z,14.80
2018-04-18T17:40:25.830Z,10.93
2018-04-18T17:42:54.106Z,9.30
2018-04-18T17:45:22.510Z,18.50
2018-04-18T17:47:50.805Z,9.70
2018-04-18T17:50:19.066Z,7.87
2018-04-18T17:52:47.322Z,11.97
2018-04-18T17:55:15.598Z,13.20
2018-04-18T17:57:43.884Z,22.67
2018-04-18T18:00:12.236Z,14.73
2018-04-18T18:02:40.487Z,17.30
2018-04-18T18:05:08.851Z,9.43
2018-04-18T18:07:37.286Z,15.13
2018-04-18T18:10:05.985Z,27.73
2018-04-18T18:12:34.278Z,15.27
2018-04-18T18:15:02.556Z,15.20
2018-04-18T18:17:31.160Z,12.20
2018-04-18T18:19:59.609Z,16.93
2018-04-18T18:22:28.088Z,20.83
2018-04-18T18:24:56.657Z,17.13
2018-04-18T18:27:24.999Z,19.37
2018-04-18T18:29:53.480Z,16.20
2018-04-18T18:32:21.800Z,18.43
2018-04-18T18:34:50.146Z,24.57
2018-04-18T18:37:18.592Z,25.67
2018-04-18T18:39:46.903Z,15.57
2018-04-18T18:42:15.399Z,19.50
2018-04-18T18:44:43.688Z,19.63
2018-04-18T18:47:12.027Z,17.63
2018-04-18T18:49:40.379Z,16.80
2018-04-18T18:52:08.914Z,18.73
2018-04-18T18:54:37.235Z,25.77
2018-04-18T18:57:05.571Z,25.23
2018-04-18T18:59:33.884Z,15.90
2018-04-18T19:02:02.299Z,19.70
2018-04-18T19:04:30.544Z,20.20
2018-04-18T19:06:58.925Z,16.77
2018-04-18T19:09:27.256Z,20.60
2018-04-18T19:11:55.628Z,17.73
2018-04-18T19:14:23.975Z,20.57
2018-04-18T19:16:52.294Z,14.50
2018-04-18T19:19:20.546Z,19.83
2018-04-18T19:21:48.876Z,18.13
2018-04-18T19:24:17.210Z,29.53
2018-04-18T19:26:45.532Z,20.03
2018-04-18T19:29:14.043Z,19.97
2018-04-18T19:31:42.386Z,20.47
2018-04-18T19:34:17.535Z,21.20
2018-04-18T19:36:45.946Z,18.70
2018-04-18T19:39:14.273Z,21.17
2018-04-18T19:41:43.313Z,20.63
2018-04-18T19:44:11.690Z,16.70
2018-04-18T19:46:40.020Z,18.33
2018-04-18T19:49:08.322Z,26.67
2018-04-18T19:51:36.736Z,15.60
2018-04-18T19:54:05.217Z,20.00
2018-04-18T19:56:33.586Z,23.57
2018-04-18T19:59:02.062Z,19.30
2018-04-18T20:01:30.372Z,22.10
2018-04-18T20:03:58.667Z,21.60
2018-04-18T20:06:27.100Z,15.30
2018-04-18T20:08:55.426Z,21.23
2018-04-18T20:11:23.815Z,19.23
2018-04-18T20:13:52.105Z,20.67
2018-04-18T20:16:20.421Z,22.47
2018-04-18T20:18:48.687Z,18.90
2018-04-18T20:21:17.021Z,28.87
2018-04-18T20:23:45.450Z,33.00
2018-04-18T20:26:13.804Z,30.00
2018-04-18T20:28:42.095Z,30.63
2018-04-18T20:31:10.421Z,29.50
2018-04-18T20:33:38.958Z,22.80
2018-04-18T20:36:07.351Z,25.70
2018-04-18T20:38:35.672Z,21.17
2018-04-18T20:41:04.042Z,27.87
2018-04-18T20:43:32.634Z,19.37
2018-04-18T20:46:01.177Z,38.13
2018-04-18T20:51:03.954Z,26.83
2018-04-18T20:53:32.346Z,23.13
2018-04-18T20:56:00.661Z,24.00
2018-04-18T20:58:29.083Z,25.70
2018-04-18T21:00:57.427Z,23.80
2018-04-18T21:03:25.666Z,28.67
2018-04-18T21:05:53.968Z,36.03
2018-04-18T21:08:22.286Z,22.70
2018-04-18T21:10:50.714Z,23.90
2018-04-18T21:13:18.966Z,29.03
2018-04-18T21:15:47.305Z,26.80
2018-04-18T21:18:15.614Z,23.40
2018-04-18T21:20:44.184Z,25.20
2018-04-18T21:23:12.556Z,29.43
2018-04-18T21:25:40.857Z,30.43
2018-04-18T21:28:09.133Z,31.27
2018-04-18T21:30:37.842Z,26.47
2018-04-18T21:33:06.148Z,35.13
2018-04-18T21:35:34.483Z,31.20
2018-04-18T21:38:02.745Z,29.60
2018-04-18T21:40:31.034Z,26.70
2018-04-18T21:42:59.302Z,26.53
2018-04-18T21:45:27.724Z,28.90
2018-04-18T21:47:56.035Z,25.13
2018-04-18T21:50:24.599Z,32.07
2018-04-18T21:52:52.870Z,29.30
2018-04-18T21:55:21.167Z,30.33
2018-04-18T21:57:49.466Z,35.20
2018-04-18T22:00:18.006Z,26.43
2018-04-18T22:02:46.312Z,25.57
2018-04-18T22:05:15.550Z,26.30
2018-04-18T22:07:43.812Z,31.50
2018-04-18T22:10:12.127Z,27.90
2018-04-18T22:12:40.411Z,25.53
2018-04-18T22:15:08.866Z,23.63
2018-04-18T22:17:37.117Z,28.93
2018-04-18T22:20:05.495Z,24.00
2018-04-18T22:22:33.966Z,26.63
2018-04-18T22:25:02.223Z,35.17
2018-04-18T22:27:30.531Z,25.90
2018-04-18T22:29:58.792Z,27.97
2018-04-18T22:32:27.098Z,26.03
2018-04-18T22:34:55.373Z,29.77
2018-04-18T22:37:23.677Z,21.90
2018-04-18T22:39:51.990Z,24.20
2018-04-18T22:42:20.404Z,27.00
2018-04-18T22:44:48.710Z,30.63
2018-04-18T22:47:17.278Z,30.23
2018-04-18T22:49:45.558Z,25.90
2018-04-18T22:52:13.956Z,22.97
2018-04-18T22:54:42.250Z,29.47
2018-04-18T22:57:10.663Z,24.43
2018-04-18T22:59:38.959Z,21.27
2018-04-18T23:02:08.240Z,30.10
2018-04-18T23:05:35.790Z,27.40
2018-04-18T23:08:04.159Z,29.40
2018-04-18T23:10:32.437Z,26.47
2018-04-18T23:13:00.815Z,23.10
2018-04-18T23:15:29.302Z,25.90
2018-04-18T23:17:57.627Z,25.93
2018-04-18T23:20:25.948Z,25.07
2018-04-18T23:22:54.194Z,27.90
2018-04-18T23:25:22.645Z,24.20
2018-04-18T23:27:51.542Z,24.00
2018-04-18T23:30:19.827Z,30.13
2018-04-18T23:32:48.263Z,24.47
2018-04-18T23:35:16.626Z,25.80
2018-04-18T23:37:44.939Z,23.33
2018-04-18T23:40:13.320Z,25.30
2018-04-18T23:42:41.699Z,23.67
2018-04-18T23:45:09.997Z,24.00
2018-04-18T23:47:38.351Z,25.27
2018-04-18T23:50:06.922Z,33.50
2018-04-18T23:52:35.183Z,26.50
2018-04-18T23:55:03.642Z,33.53
2018-04-18T23:57:32.055Z,27.23
